sensor_id;sensor_type;location;lat;lon;timestamp;pressure;altitude;pressure_sealevel;temperature;humidity
11415;BME280;5763;42.714;23.244;2023-04-22T00:02:12;94247.16;;;11.15;66.67
11415;BME280;5763;42.714;23.244;2023-04-22T00:04:41;94250.00;;;11.21;66.29
11415;BME280;5763;42.714;23.244;2023-04-22T00:07:09;94211.09;;;10.84;66.28
11415;BME280;5763;42.714;23.244;2023-04-22T00:09:37;94257.16;;;11.18;65.95
11415;BME280;5763;42.714;23.244;2023-04-22T00:12:04;94260.53;;;11.13;66.66
11415;BME280;5763;42.714;23.244;2023-04-22T00:14:31;94246.38;;;11.15;66.40
11415;BME280;5763;42.714;23.244;2023-04-22T00:16:57;94250.31;;;11.23;66.21
11415;BME280;5763;42.714;23.244;2023-04-22T00:19:24;94249.84;;;11.24;66.27
11415;BME280;5763;42.714;23.244;2023-04-22T00:21:52;94258.00;;;11.33;65.91
11415;BME280;5763;42.714;23.244;2023-04-22T00:24:20;94260.28;;;11.35;65.83
11415;BME280;5763;42.714;23.244;2023-04-22T00:26:47;94253.16;;;11.28;65.99
11415;BME280;5763;42.714;23.244;2023-04-22T00:29:13;94260.75;;;11.33;66.03
11415;BME280;5763;42.714;23.244;2023-04-22T00:31:40;94255.84;;;11.37;65.42
11415;BME280;5763;42.714;23.244;2023-04-22T00:34:07;94259.38;;;11.38;65.88
11415;BME280;5763;42.714;23.244;2023-04-22T00:36:34;94259.97;;;11.42;65.79
11415;BME280;5763;42.714;23.244;2023-04-22T00:39:00;94260.00;;;11.33;65.78
11415;BME280;5763;42.714;23.244;2023-04-22T00:41:29;94253.88;;;11.38;65.82
11415;BME280;5763;42.714;23.244;2023-04-22T00:43:56;94257.69;;;11.40;65.71
11415;BME280;5763;42.714;23.244;2023-04-22T00:46:24;94258.09;;;11.48;65.36
11415;BME280;5763;42.714;23.244;2023-04-22T00:48:51;94252.66;;;11.39;66.04
11415;BME280;5763;42.714;23.244;2023-04-22T00:51:18;94261.16;;;11.41;65.88
11415;BME280;5763;42.714;23.244;2023-04-22T00:53:45;94262.84;;;11.38;66.17
11415;BME280;5763;42.714;23.244;2023-04-22T00:56:12;94260.75;;;11.33;66.34
11415;BME280;5763;42.714;23.244;2023-04-22T00:58:40;94265.59;;;11.38;66.37
11415;BME280;5763;42.714;23.244;2023-04-22T01:01:07;94264.06;;;11.37;66.37
11415;BME280;5763;42.714;23.244;2023-04-22T01:03:35;94268.97;;;11.33;66.42
11415;BME280;5763;42.714;23.244;2023-04-22T01:06:03;94271.25;;;11.35;66.30
11415;BME280;5763;42.714;23.244;2023-04-22T01:08:31;94271.06;;;11.38;66.14
11415;BME280;5763;42.714;23.244;2023-04-22T01:10:58;94266.94;;;11.43;65.65
11415;BME280;5763;42.714;23.244;2023-04-22T01:13:25;94261.16;;;11.41;65.39
11415;BME280;5763;42.714;23.244;2023-04-22T01:15:53;94261.66;;;11.39;65.20
11415;BME280;5763;42.714;23.244;2023-04-22T01:18:21;94261.66;;;11.39;64.98
11415;BME280;5763;42.714;23.244;2023-04-22T01:20:48;94265.25;;;11.45;64.66
11415;BME280;5763;42.714;23.244;2023-04-22T01:23:18;94267.59;;;11.38;64.69
11415;BME280;5763;42.714;23.244;2023-04-22T01:25:45;94267.03;;;11.25;64.92
11415;BME280;5763;42.714;23.244;2023-04-22T01:28:12;94261.28;;;11.23;64.51
11415;BME280;5763;42.714;23.244;2023-04-22T01:30:39;94264.81;;;11.14;64.51
11415;BME280;5763;42.714;23.244;2023-04-22T01:33:06;94264.13;;;10.96;64.84
11415;BME280;5763;42.714;23.244;2023-04-22T01:35:35;94272.41;;;10.78;65.65
11415;BME280;5763;42.714;23.244;2023-04-22T01:38:02;94270.91;;;10.68;66.07
11415;BME280;5763;42.714;23.244;2023-04-22T01:40:30;94271.22;;;10.61;66.09
11415;BME280;5763;42.714;23.244;2023-04-22T01:42:58;94269.84;;;10.56;66.71
11415;BME280;5763;42.714;23.244;2023-04-22T01:45:25;94274.25;;;10.63;66.19
11415;BME280;5763;42.714;23.244;2023-04-22T01:47:51;94270.78;;;10.62;66.39
11415;BME280;5763;42.714;23.244;2023-04-22T01:50:19;94274.13;;;10.57;66.62
11415;BME280;5763;42.714;23.244;2023-04-22T01:52:46;94260.41;;;10.66;66.68
11415;BME280;5763;42.714;23.244;2023-04-22T01:55:12;94266.47;;;10.70;66.64
11415;BME280;5763;42.714;23.244;2023-04-22T01:57:41;94265.25;;;10.71;67.09
11415;BME280;5763;42.714;23.244;2023-04-22T02:00:09;94258.44;;;10.76;66.93
11415;BME280;5763;42.714;23.244;2023-04-22T02:02:36;94257.63;;;10.84;66.90
11415;BME280;5763;42.714;23.244;2023-04-22T02:05:04;94260.81;;;10.83;67.19
11415;BME280;5763;42.714;23.244;2023-04-22T02:07:30;94266.75;;;10.81;67.17
11415;BME280;5763;42.714;23.244;2023-04-22T02:09:57;94266.16;;;10.77;66.89
11415;BME280;5763;42.714;23.244;2023-04-22T02:12:24;94257.06;;;10.71;66.76
11415;BME280;5763;42.714;23.244;2023-04-22T02:14:52;94264.03;;;10.72;66.90
11415;BME280;5763;42.714;23.244;2023-04-22T02:17:18;94254.47;;;10.77;66.67
11415;BME280;5763;42.714;23.244;2023-04-22T02:19:46;94259.34;;;10.73;67.14
11415;BME280;5763;42.714;23.244;2023-04-22T02:22:13;94248.66;;;10.75;66.79
11415;BME280;5763;42.714;23.244;2023-04-22T02:24:40;94256.13;;;10.83;66.89
11415;BME280;5763;42.714;23.244;2023-04-22T02:27:07;94258.06;;;10.92;66.43
11415;BME280;5763;42.714;23.244;2023-04-22T02:29:34;94256.06;;;10.92;65.91
11415;BME280;5763;42.714;23.244;2023-04-22T02:32:02;94256.13;;;10.83;66.43
11415;BME280;5763;42.714;23.244;2023-04-22T02:34:28;94262.34;;;10.84;66.92
11415;BME280;5763;42.714;23.244;2023-04-22T02:36:55;94257.47;;;10.79;66.47
11415;BME280;5763;42.714;23.244;2023-04-22T02:39:22;94265.88;;;10.75;66.29
11415;BME280;5763;42.714;23.244;2023-04-22T02:41:48;94270.72;;;10.71;66.53
11415;BME280;5763;42.714;23.244;2023-04-22T02:44:15;94266.47;;;10.70;66.28
11415;BME280;5763;42.714;23.244;2023-04-22T02:46:42;94267.25;;;10.71;66.45
11415;BME280;5763;42.714;23.244;2023-04-22T02:49:10;94262.97;;;10.70;66.32
11415;BME280;5763;42.714;23.244;2023-04-22T02:51:37;94268.00;;;10.71;66.59
11415;BME280;5763;42.714;23.244;2023-04-22T02:54:04;94266.28;;;10.83;66.06
11415;BME280;5763;42.714;23.244;2023-04-22T02:56:31;94277.25;;;10.74;65.93
11415;BME280;5763;42.714;23.244;2023-04-22T02:58:57;94274.41;;;10.68;65.69
11415;BME280;5763;42.714;23.244;2023-04-22T03:01:24;94273.81;;;10.64;65.35
11415;BME280;5763;42.714;23.244;2023-04-22T03:03:51;94275.03;;;10.63;65.06
11415;BME280;5763;42.714;23.244;2023-04-22T03:06:19;94279.13;;;10.59;65.54
11415;BME280;5763;42.714;23.244;2023-04-22T03:08:46;94284.63;;;10.50;65.93
11415;BME280;5763;42.714;23.244;2023-04-22T03:11:13;94276.44;;;10.41;66.47
11415;BME280;5763;42.714;23.244;2023-04-22T03:13:39;94280.56;;;10.27;66.91
11415;BME280;5763;42.714;23.244;2023-04-22T03:16:06;94275.38;;;10.20;67.14
11415;BME280;5763;42.714;23.244;2023-04-22T03:18:33;94276.75;;;10.25;67.51
11415;BME280;5763;42.714;23.244;2023-04-22T03:21:00;94282.06;;;10.19;68.27
11415;BME280;5763;42.714;23.244;2023-04-22T03:23:28;94279.94;;;10.23;68.28
11415;BME280;5763;42.714;23.244;2023-04-22T03:25:55;94285.41;;;10.14;68.73
11415;BME280;5763;42.714;23.244;2023-04-22T03:28:21;94283.00;;;10.16;68.79
11415;BME280;5763;42.714;23.244;2023-04-22T03:30:48;94285.25;;;10.18;69.35
11415;BME280;5763;42.714;23.244;2023-04-22T03:33:15;94291.03;;;10.20;69.24
11415;BME280;5763;42.714;23.244;2023-04-22T03:35:42;94285.88;;;10.31;68.80
11415;BME280;5763;42.714;23.244;2023-04-22T03:38:08;94287.09;;;10.30;68.97
11415;BME280;5763;42.714;23.244;2023-04-22T03:40:37;94291.34;;;10.31;68.60
11415;BME280;5763;42.714;23.244;2023-04-22T03:43:03;94294.06;;;10.40;68.24
11415;BME280;5763;42.714;23.244;2023-04-22T03:45:30;94294.81;;;10.31;68.74
11415;BME280;5763;42.714;23.244;2023-04-22T03:47:57;94299.22;;;10.38;68.29
11415;BME280;5763;42.714;23.244;2023-04-22T03:50:24;94293.00;;;10.37;68.73
11415;BME280;5763;42.714;23.244;2023-04-22T03:52:50;94306.53;;;10.41;68.71
11415;BME280;5763;42.714;23.244;2023-04-22T03:55:17;94309.72;;;10.48;68.43
11415;BME280;5763;42.714;23.244;2023-04-22T03:57:45;94310.16;;;10.56;68.18
11415;BME280;5763;42.714;23.244;2023-04-22T04:00:12;94313.19;;;10.58;67.66
11415;BME280;5763;42.714;23.244;2023-04-22T04:02:39;94304.34;;;10.63;67.77
11415;BME280;5763;42.714;23.244;2023-04-22T04:05:06;94314.84;;;10.64;67.46
11415;BME280;5763;42.714;23.244;2023-04-22T04:07:35;94309.09;;;10.62;67.82
11415;BME280;5763;42.714;23.244;2023-04-22T04:10:02;94318.47;;;10.61;67.57
11415;BME280;5763;42.714;23.244;2023-04-22T04:12:29;94311.94;;;10.68;67.28
11415;BME280;5763;42.714;23.244;2023-04-22T04:14:57;94318.19;;;10.59;67.94
11415;BME280;5763;42.714;23.244;2023-04-22T04:17:24;94314.97;;;10.70;67.72
11415;BME280;5763;42.714;23.244;2023-04-22T04:19:53;94315.28;;;10.81;67.30
11415;BME280;5763;42.714;23.244;2023-04-22T04:22:20;94327.28;;;10.83;67.50
11415;BME280;5763;42.714;23.244;2023-04-22T04:24:47;94328.63;;;10.88;67.41
11415;BME280;5763;42.714;23.244;2023-04-22T04:27:14;94327.84;;;10.96;67.43
11415;BME280;5763;42.714;23.244;2023-04-22T04:29:41;94326.63;;;10.97;67.67
11415;BME280;5763;42.714;23.244;2023-04-22T04:32:10;94325.53;;;11.04;67.09
11415;BME280;5763;42.714;23.244;2023-04-22T04:34:37;94336.63;;;11.09;67.11
11415;BME280;5763;42.714;23.244;2023-04-22T04:37:03;94338.88;;;11.11;66.72
11415;BME280;5763;42.714;23.244;2023-04-22T04:39:30;94335.69;;;11.12;66.81
11415;BME280;5763;42.714;23.244;2023-04-22T04:41:57;94340.09;;;11.19;66.93
11415;BME280;5763;42.714;23.244;2023-04-22T04:44:25;94341.75;;;11.25;67.02
11415;BME280;5763;42.714;23.244;2023-04-22T04:46:51;94342.59;;;11.40;66.41
11415;BME280;5763;42.714;23.244;2023-04-22T04:49:20;94338.47;;;11.45;66.30
11415;BME280;5763;42.714;23.244;2023-04-22T04:51:47;94346.94;;;11.56;66.09
11415;BME280;5763;42.714;23.244;2023-04-22T04:54:14;94349.22;;;11.57;65.51
11415;BME280;5763;42.714;23.244;2023-04-22T04:56:40;94346.75;;;11.68;65.00
11415;BME280;5763;42.714;23.244;2023-04-22T04:59:07;94356.47;;;11.69;64.98
11415;BME280;5763;42.714;23.244;2023-04-22T05:01:34;94344.75;;;11.78;64.80
11415;BME280;5763;42.714;23.244;2023-04-22T05:04:01;94358.25;;;11.81;64.85
11415;BME280;5763;42.714;23.244;2023-04-22T05:06:29;94357.94;;;11.79;64.35
11415;BME280;5763;42.714;23.244;2023-04-22T05:08:57;94363.41;;;11.88;64.32
11415;BME280;5763;42.714;23.244;2023-04-22T05:11:23;94354.34;;;11.97;63.98
11415;BME280;5763;42.714;23.244;2023-04-22T05:13:50;94364.16;;;12.12;63.80
11415;BME280;5763;42.714;23.244;2023-04-22T05:16:17;94361.53;;;12.18;63.53
11415;BME280;5763;42.714;23.244;2023-04-22T05:18:44;94361.84;;;12.20;63.52
11415;BME280;5763;42.714;23.244;2023-04-22T05:21:11;94366.69;;;12.25;63.42
11415;BME280;5763;42.714;23.244;2023-04-22T05:23:39;94372.56;;;12.09;63.80
11415;BME280;5763;42.714;23.244;2023-04-22T05:26:05;94370.88;;;12.11;63.64
11415;BME280;5763;42.714;23.244;2023-04-22T05:28:32;94362.41;;;12.24;62.63
11415;BME280;5763;42.714;23.244;2023-04-22T05:30:59;94362.09;;;12.22;62.69
11415;BME280;5763;42.714;23.244;2023-04-22T05:33:26;94365.38;;;12.35;62.50
11415;BME280;5763;42.714;23.244;2023-04-22T05:35:55;94367.66;;;12.36;62.45
11415;BME280;5763;42.714;23.244;2023-04-22T05:38:22;94366.06;;;12.44;62.20
11415;BME280;5763;42.714;23.244;2023-04-22T05:40:50;94376.13;;;12.47;62.60
11415;BME280;5763;42.714;23.244;2023-04-22T05:43:17;94362.28;;;12.56;62.47
11415;BME280;5763;42.714;23.244;2023-04-22T05:45:44;94374.91;;;12.63;62.27
11415;BME280;5763;42.714;23.244;2023-04-22T05:48:11;94375.47;;;12.52;62.06
11415;BME280;5763;42.714;23.244;2023-04-22T05:50:38;94376.13;;;12.47;62.42
11415;BME280;5763;42.714;23.244;2023-04-22T05:53:04;94373.84;;;12.46;62.38
11415;BME280;5763;42.714;23.244;2023-04-22T05:55:31;94373.59;;;12.58;62.09
11415;BME280;5763;42.714;23.244;2023-04-22T05:57:59;94373.66;;;12.64;62.22
11415;BME280;5763;42.714;23.244;2023-04-22T06:00:26;94373.84;;;12.60;61.94
11415;BME280;5763;42.714;23.244;2023-04-22T06:02:53;94375.50;;;12.67;61.81
11415;BME280;5763;42.714;23.244;2023-04-22T06:05:19;94377.69;;;12.77;61.30
11415;BME280;5763;42.714;23.244;2023-04-22T06:07:46;94379.94;;;12.79;61.91
11415;BME280;5763;42.714;23.244;2023-04-22T06:10:13;94366.09;;;12.97;61.49
11415;BME280;5763;42.714;23.244;2023-04-22T06:12:39;94374.53;;;13.08;61.10
11415;BME280;5763;42.714;23.244;2023-04-22T06:15:08;94366.00;;;13.06;61.30
11415;BME280;5763;42.714;23.244;2023-04-22T06:17:36;94373.75;;;13.07;61.09
11415;BME280;5763;42.714;23.244;2023-04-22T06:20:04;94367.72;;;13.03;61.33
11415;BME280;5763;42.714;23.244;2023-04-22T06:22:31;94367.41;;;13.01;61.49
11415;BME280;5763;42.714;23.244;2023-04-22T06:24:57;94373.78;;;13.22;60.98
11415;BME280;5763;42.714;23.244;2023-04-22T06:27:24;94372.25;;;13.35;60.94
11415;BME280;5763;42.714;23.244;2023-04-22T06:29:51;94379.44;;;13.47;60.60
11415;BME280;5763;42.714;23.244;2023-04-22T06:32:19;94376.19;;;13.63;60.76
11415;BME280;5763;42.714;23.244;2023-04-22T06:34:46;94377.22;;;13.66;60.88
11415;BME280;5763;42.714;23.244;2023-04-22T06:37:12;94375.50;;;13.68;60.70
11415;BME280;5763;42.714;23.244;2023-04-22T06:39:39;94374.94;;;13.79;60.15
11415;BME280;5763;42.714;23.244;2023-04-22T06:42:06;94375.50;;;13.83;60.03
11415;BME280;5763;42.714;23.244;2023-04-22T06:44:33;94378.16;;;13.77;60.42
11415;BME280;5763;42.714;23.244;2023-04-22T06:47:00;94380.13;;;13.77;60.80
11415;BME280;5763;42.714;23.244;2023-04-22T06:49:28;94374.41;;;13.95;60.21
11415;BME280;5763;42.714;23.244;2023-04-22T06:51:54;94377.72;;;13.99;60.45
11415;BME280;5763;42.714;23.244;2023-04-22T06:54:22;94371.81;;;14.06;60.29
11415;BME280;5763;42.714;23.244;2023-04-22T06:56:48;94378.81;;;14.21;59.61
11415;BME280;5763;42.714;23.244;2023-04-22T06:59:15;94382.19;;;14.31;59.94
11415;BME280;5763;42.714;23.244;2023-04-22T07:01:42;94380.38;;;14.28;59.73
11415;BME280;5763;42.714;23.244;2023-04-22T07:04:08;94386.88;;;14.45;59.08
11415;BME280;5763;42.714;23.244;2023-04-22T07:06:36;94386.13;;;14.64;58.99
11415;BME280;5763;42.714;23.244;2023-04-22T07:09:03;94382.13;;;14.65;59.56
11415;BME280;5763;42.714;23.244;2023-04-22T07:11:30;94383.34;;;14.64;58.27
11415;BME280;5763;42.714;23.244;2023-04-22T07:13:57;94393.25;;;14.76;58.04
11415;BME280;5763;42.714;23.244;2023-04-22T07:16:25;94390.75;;;14.98;58.00
11415;BME280;5763;42.714;23.244;2023-04-22T07:18:52;94386.38;;;15.12;58.88
11415;BME280;5763;42.714;23.244;2023-04-22T07:21:18;94391.25;;;15.22;58.33
11415;BME280;5763;42.714;23.244;2023-04-22T07:23:47;94388.66;;;15.33;55.23
11415;BME280;5763;42.714;23.244;2023-04-22T07:26:14;94389.84;;;15.32;54.51
11415;BME280;5763;42.714;23.244;2023-04-22T07:28:40;94391.50;;;15.44;54.42
11415;BME280;5763;42.714;23.244;2023-04-22T07:31:07;94392.31;;;15.56;54.68
11415;BME280;5763;42.714;23.244;2023-04-22T07:33:34;94390.59;;;15.58;55.53
11415;BME280;5763;42.714;23.244;2023-04-22T07:36:00;94394.38;;;15.61;56.33
11415;BME280;5763;42.714;23.244;2023-04-22T07:38:27;94392.47;;;15.72;55.55
11415;BME280;5763;42.714;23.244;2023-04-22T07:40:56;94387.66;;;15.67;54.49
11415;BME280;5763;42.714;23.244;2023-04-22T07:43:22;94391.22;;;15.73;53.11
11415;BME280;5763;42.714;23.244;2023-04-22T07:45:49;94382.94;;;15.73;51.88
11415;BME280;5763;42.714;23.244;2023-04-22T07:48:16;94396.06;;;15.84;51.69
11415;BME280;5763;42.714;23.244;2023-04-22T07:50:43;94384.34;;;15.94;52.26
11415;BME280;5763;42.714;23.244;2023-04-22T07:53:09;94381.16;;;16.01;51.20
11415;BME280;5763;42.714;23.244;2023-04-22T07:55:37;94391.47;;;16.06;50.38
11415;BME280;5763;42.714;23.244;2023-04-22T07:58:05;94387.22;;;16.11;48.19
11415;BME280;5763;42.714;23.244;2023-04-22T08:00:32;94378.50;;;16.23;48.35
11415;BME280;5763;42.714;23.244;2023-04-22T08:02:59;94375.56;;;16.32;47.88
11415;BME280;5763;42.714;23.244;2023-04-22T08:05:26;94369.34;;;16.43;47.91
11415;BME280;5763;42.714;23.244;2023-04-22T08:07:52;94369.94;;;16.58;48.34
11415;BME280;5763;42.714;23.244;2023-04-22T08:10:19;94377.03;;;16.70;48.65
11415;BME280;5763;42.714;23.244;2023-04-22T08:12:46;94368.69;;;16.59;47.77
11415;BME280;5763;42.714;23.244;2023-04-22T08:15:14;94368.69;;;16.59;47.58
11415;BME280;5763;42.714;23.244;2023-04-22T08:17:41;94356.16;;;16.63;47.05
11415;BME280;5763;42.714;23.244;2023-04-22T08:20:08;94355.41;;;16.68;48.23
11415;BME280;5763;42.714;23.244;2023-04-22T08:22:35;94366.56;;;16.96;47.91
11415;BME280;5763;42.714;23.244;2023-04-22T08:25:03;94352.53;;;17.16;46.57
11415;BME280;5763;42.714;23.244;2023-04-22T08:27:32;94364.91;;;17.42;46.30
11415;BME280;5763;42.714;23.244;2023-04-22T08:29:58;94359.88;;;17.47;45.68
11415;BME280;5763;42.714;23.244;2023-04-22T08:32:26;94357.59;;;17.45;44.11
11415;BME280;5763;42.714;23.244;2023-04-22T08:34:53;94351.84;;;17.60;45.47
11415;BME280;5763;42.714;23.244;2023-04-22T08:37:20;94348.81;;;17.58;45.39
11415;BME280;5763;42.714;23.244;2023-04-22T08:39:47;94344.03;;;17.80;45.21
11415;BME280;5763;42.714;23.244;2023-04-22T08:42:14;94345.03;;;17.88;44.93
11415;BME280;5763;42.714;23.244;2023-04-22T08:44:41;94341.75;;;18.01;42.77
11415;BME280;5763;42.714;23.244;2023-04-22T08:47:09;94347.53;;;18.08;43.30
11415;BME280;5763;42.714;23.244;2023-04-22T08:49:38;94331.84;;;18.27;42.88
11415;BME280;5763;42.714;23.244;2023-04-22T08:52:05;94332.06;;;18.46;41.90
11415;BME280;5763;42.714;23.244;2023-04-22T08:54:33;94330.53;;;18.56;41.99
11415;BME280;5763;42.714;23.244;2023-04-22T08:57:01;94328.97;;;18.66;42.25
11415;BME280;5763;42.714;23.244;2023-04-22T08:59:29;94332.91;;;18.87;41.62
11415;BME280;5763;42.714;23.244;2023-04-22T09:01:56;94337.72;;;18.86;41.84
11415;BME280;5763;42.714;23.244;2023-04-22T09:04:24;94330.81;;;19.04;41.35
11415;BME280;5763;42.714;23.244;2023-04-22T09:06:52;94331.03;;;19.06;41.57
11415;BME280;5763;42.714;23.244;2023-04-22T09:09:18;94330.72;;;19.20;42.74
11415;BME280;5763;42.714;23.244;2023-04-22T09:11:46;94326.25;;;19.47;41.65
11415;BME280;5763;42.714;23.244;2023-04-22T09:14:13;94330.78;;;19.79;41.55
11415;BME280;5763;42.714;23.244;2023-04-22T09:16:46;94327.41;;;19.92;40.23
11415;BME280;5763;42.714;23.244;2023-04-22T09:19:13;94320.56;;;19.93;40.72
11415;BME280;5763;42.714;23.244;2023-04-22T09:21:41;94326.91;;;19.88;39.01
11415;BME280;5763;42.714;23.244;2023-04-22T09:24:10;94331.47;;;20.15;38.27
11415;BME280;5763;42.714;23.244;2023-04-22T09:26:38;94319.50;;;20.25;38.42
11415;BME280;5763;42.714;23.244;2023-04-22T09:29:06;94322.69;;;20.35;37.61
11415;BME280;5763;42.714;23.244;2023-04-22T09:31:35;94320.84;;;20.19;38.79
11415;BME280;5763;42.714;23.244;2023-04-22T09:34:03;94320.97;;;20.32;37.79
11415;BME280;5763;42.714;23.244;2023-04-22T09:36:30;94304.84;;;20.49;37.40
11415;BME280;5763;42.714;23.244;2023-04-22T09:39:00;94302.50;;;20.77;38.65
11415;BME280;5763;42.714;23.244;2023-04-22T09:41:31;94298.75;;;20.93;36.88
11415;BME280;5763;42.714;23.244;2023-04-22T09:43:59;94302.81;;;21.10;36.51
11415;BME280;5763;42.714;23.244;2023-04-22T09:46:28;94301.97;;;21.34;35.63
11415;BME280;5763;42.714;23.244;2023-04-22T09:48:56;94301.16;;;21.52;35.03
11415;BME280;5763;42.714;23.244;2023-04-22T09:51:24;94292.97;;;21.91;33.84
11415;BME280;5763;42.714;23.244;2023-04-22T09:53:58;94297.03;;;21.90;33.99
11415;BME280;5763;42.714;23.244;2023-04-22T09:56:45;94293.72;;;22.04;34.04
11415;BME280;5763;42.714;23.244;2023-04-22T09:59:13;94297.03;;;22.03;33.93
11415;BME280;5763;42.714;23.244;2023-04-22T10:01:41;94299.66;;;21.69;34.46
11415;BME280;5763;42.714;23.244;2023-04-22T10:04:08;94300.03;;;21.29;34.35
11415;BME280;5763;42.714;23.244;2023-04-22T10:06:36;94303.25;;;20.96;33.84
11415;BME280;5763;42.714;23.244;2023-04-22T10:09:03;94294.38;;;21.16;33.88
11415;BME280;5763;42.714;23.244;2023-04-22T10:11:31;94295.22;;;21.11;33.53
11415;BME280;5763;42.714;23.244;2023-04-22T10:13:59;94291.53;;;21.53;32.70
11415;BME280;5763;42.714;23.244;2023-04-22T10:16:30;94288.69;;;21.90;33.05
11415;BME280;5763;42.714;23.244;2023-04-22T10:18:59;94292.78;;;22.15;32.51
11415;BME280;5763;42.714;23.244;2023-04-22T10:21:28;94285.38;;;22.30;31.08
11415;BME280;5763;42.714;23.244;2023-04-22T10:23:57;94278.44;;;22.50;31.76
11415;BME280;5763;42.714;23.244;2023-04-22T10:26:48;94275.53;;;22.42;30.94
11415;BME280;5763;42.714;23.244;2023-04-22T10:29:18;94275.66;;;22.50;31.26
11415;BME280;5763;42.714;23.244;2023-04-22T10:31:50;94274.13;;;22.75;31.78
11415;BME280;5763;42.714;23.244;2023-04-22T10:34:18;94266.47;;;22.88;31.41
11415;BME280;5763;42.714;23.244;2023-04-22T10:36:58;94268.91;;;23.05;30.58
11415;BME280;5763;42.714;23.244;2023-04-22T10:39:27;94272.75;;;23.28;30.44
11415;BME280;5763;42.714;23.244;2023-04-22T10:42:05;94267.94;;;23.49;30.81
11415;BME280;5763;42.714;23.244;2023-04-22T10:44:49;94271.13;;;23.73;30.64
11415;BME280;5763;42.714;23.244;2023-04-22T10:47:27;94270.19;;;23.91;29.39
11415;BME280;5763;42.714;23.244;2023-04-22T10:50:15;94275.59;;;23.89;29.60
11415;BME280;5763;42.714;23.244;2023-04-22T10:52:45;94256.97;;;23.92;29.86
11415;BME280;5763;42.714;23.244;2023-04-22T10:55:12;94257.97;;;24.02;29.19
11415;BME280;5763;42.714;23.244;2023-04-22T10:57:40;94253.59;;;24.14;29.67
11415;BME280;5763;42.714;23.244;2023-04-22T11:00:28;94259.09;;;24.27;28.33
11415;BME280;5763;42.714;23.244;2023-04-22T11:03:12;94259.34;;;24.36;27.52
11415;BME280;5763;42.714;23.244;2023-04-22T11:05:40;94255.50;;;24.19;27.80
11415;BME280;5763;42.714;23.244;2023-04-22T11:08:08;94260.81;;;24.37;27.12
11415;BME280;5763;42.714;23.244;2023-04-22T11:10:39;94254.41;;;24.57;27.48
11415;BME280;5763;42.714;23.244;2023-04-22T11:13:08;94254.84;;;24.61;28.34
11415;BME280;5763;42.714;23.244;2023-04-22T11:15:38;94260.59;;;24.56;27.61
11415;BME280;5763;42.714;23.244;2023-04-22T11:18:17;94266.09;;;24.69;27.85
11415;BME280;5763;42.714;23.244;2023-04-22T11:20:44;94265.09;;;24.94;28.12
11415;BME280;5763;42.714;23.244;2023-04-22T11:23:18;94270.19;;;25.11;27.88
11415;BME280;5763;42.714;23.244;2023-04-22T11:25:46;94279.25;;;24.89;27.37
11415;BME280;5763;42.714;23.244;2023-04-22T11:28:13;94273.66;;;24.89;27.67
11415;BME280;5763;42.714;23.244;2023-04-22T11:30:41;94286.34;;;24.90;27.55
11415;BME280;5763;42.714;23.244;2023-04-22T11:33:07;94290.81;;;24.85;27.46
11415;BME280;5763;42.714;23.244;2023-04-22T11:35:34;94301.28;;;24.92;28.28
11415;BME280;5763;42.714;23.244;2023-04-22T11:38:03;94302.38;;;24.82;28.73
11415;BME280;5763;42.714;23.244;2023-04-22T11:40:32;94313.25;;;24.93;28.42
11415;BME280;5763;42.714;23.244;2023-04-22T11:43:00;94307.13;;;25.02;28.84
11415;BME280;5763;42.714;23.244;2023-04-22T11:45:29;94317.78;;;25.11;28.76
11415;BME280;5763;42.714;23.244;2023-04-22T11:47:59;94310.91;;;25.19;28.86
11415;BME280;5763;42.714;23.244;2023-04-22T11:50:28;94305.53;;;24.86;28.30
11415;BME280;5763;42.714;23.244;2023-04-22T11:52:56;94308.66;;;24.75;28.31
11415;BME280;5763;42.714;23.244;2023-04-22T11:55:25;94310.72;;;24.74;29.30
11415;BME280;5763;42.714;23.244;2023-04-22T11:57:56;94302.81;;;24.65;29.51
11415;BME280;5763;42.714;23.244;2023-04-22T12:00:28;94314.25;;;24.75;30.06
11415;BME280;5763;42.714;23.244;2023-04-22T12:02:58;94312.03;;;24.73;29.38
11415;BME280;5763;42.714;23.244;2023-04-22T12:05:32;94319.69;;;24.52;30.63
11415;BME280;5763;42.714;23.244;2023-04-22T12:07:59;94333.44;;;24.43;30.65
11415;BME280;5763;42.714;23.244;2023-04-22T12:10:26;94322.88;;;24.56;30.55
11415;BME280;5763;42.714;23.244;2023-04-22T12:12:53;94332.84;;;24.65;31.30
11415;BME280;5763;42.714;23.244;2023-04-22T12:15:20;94335.38;;;24.55;31.04
11415;BME280;5763;42.714;23.244;2023-04-22T12:17:49;94334.97;;;24.51;31.66
11415;BME280;5763;42.714;23.244;2023-04-22T12:20:17;94334.38;;;24.45;30.87
11415;BME280;5763;42.714;23.244;2023-04-22T12:22:44;94339.31;;;24.32;30.56
11415;BME280;5763;42.714;23.244;2023-04-22T12:25:11;94333.72;;;24.32;30.84
11415;BME280;5763;42.714;23.244;2023-04-22T12:27:37;94336.81;;;24.21;30.78
11415;BME280;5763;42.714;23.244;2023-04-22T12:30:05;94329.44;;;24.10;30.69
11415;BME280;5763;42.714;23.244;2023-04-22T12:32:32;94341.38;;;23.90;30.60
11415;BME280;5763;42.714;23.244;2023-04-22T12:34:59;94334.28;;;23.89;30.30
11415;BME280;5763;42.714;23.244;2023-04-22T12:37:27;94335.06;;;23.77;31.28
11415;BME280;5763;42.714;23.244;2023-04-22T12:39:54;94327.28;;;23.83;31.60
11415;BME280;5763;42.714;23.244;2023-04-22T12:42:21;94327.28;;;23.83;31.27
11415;BME280;5763;42.714;23.244;2023-04-22T12:44:47;94326.03;;;23.84;31.26
11415;BME280;5763;42.714;23.244;2023-04-22T12:47:15;94318.78;;;23.88;32.12
11415;BME280;5763;42.714;23.244;2023-04-22T12:49:42;94319.91;;;24.06;32.05
11415;BME280;5763;42.714;23.244;2023-04-22T12:52:11;94314.91;;;24.12;30.12
11415;BME280;5763;42.714;23.244;2023-04-22T12:54:39;94313.06;;;23.94;30.74
11415;BME280;5763;42.714;23.244;2023-04-22T12:57:05;94312.44;;;23.88;30.32
11415;BME280;5763;42.714;23.244;2023-04-22T12:59:32;94320.13;;;23.74;30.87
11415;BME280;5763;42.714;23.244;2023-04-22T13:01:59;94319.06;;;23.77;30.68
11415;BME280;5763;42.714;23.244;2023-04-22T13:04:26;94318.31;;;23.77;29.79